sensor_id;sensor_type;location;lat;lon;timestamp;pressure;altitude;pressure_sealevel;temperature;humidity
20860;BME280;10590;48.154;11.514;2023-10-08T00:01:53;96483.72;;;17.04;38.01
20860;BME280;10590;48.154;11.514;2023-10-08T00:07:16;96469.22;;;16.97;38.67
20860;BME280;10590;48.154;11.514;2023-10-08T00:12:43;96453.50;;;16.99;38.57
20860;BME280;10590;48.154;11.514;2023-10-08T00:18:08;96446.66;;;17.01;38.85
20860;BME280;10590;48.154;11.514;2023-10-08T00:23:32;96446.19;;;17.11;38.67
20860;BME280;10590;48.154;11.514;2023-10-08T00:28:57;96449.81;;;17.28;38.42
20860;BME280;10590;48.154;11.514;2023-10-08T00:34:20;96441.97;;;17.35;38.39
20860;BME280;10590;48.154;11.514;2023-10-08T00:39:42;96438.00;;;17.44;38.34
20860;BME280;10590;48.154;11.514;2023-10-08T00:45:06;96429.69;;;17.49;38.79
20860;BME280;10590;48.154;11.514;2023-10-08T00:50:28;96432.38;;;17.62;37.36
20860;BME280;10590;48.154;11.514;2023-10-08T00:56:03;96432.59;;;17.69;37.39
20860;BME280;10590;48.154;11.514;2023-10-08T01:01:35;96400.66;;;17.71;37.25
20860;BME280;10590;48.154;11.514;2023-10-08T01:07:00;96420.31;;;17.83;37.09
20860;BME280;10590;48.154;11.514;2023-10-08T01:12:30;96428.16;;;17.89;36.88
20860;BME280;10590;48.154;11.514;2023-10-08T01:17:57;96430.19;;;17.92;36.92
20860;BME280;10590;48.154;11.514;2023-10-08T01:23:22;96421.31;;;17.91;36.70
20860;BME280;10590;48.154;11.514;2023-10-08T01:28:47;96418.50;;;17.88;36.36
20860;BME280;10590;48.154;11.514;2023-10-08T01:34:09;96415.81;;;17.88;35.97
20860;BME280;10590;48.154;11.514;2023-10-08T01:39:37;96408.59;;;17.92;35.92
20860;BME280;10590;48.154;11.514;2023-10-08T01:45:03;96415.34;;;17.86;35.82
20860;BME280;10590;48.154;11.514;2023-10-08T01:50:28;96403.88;;;17.89;34.96
20860;BME280;10590;48.154;11.514;2023-10-08T01:55:54;96395.91;;;17.80;35.17
20860;BME280;10590;48.154;11.514;2023-10-08T02:01:19;96407.69;;;17.88;35.30
20860;BME280;10590;48.154;11.514;2023-10-08T02:06:40;96408.38;;;17.85;36.24
20860;BME280;10590;48.154;11.514;2023-10-08T02:12:04;96388.69;;;17.84;35.64
20860;BME280;10590;48.154;11.514;2023-10-08T02:17:28;96399.00;;;17.94;36.23
20860;BME280;10590;48.154;11.514;2023-10-08T02:22:50;96396.75;;;17.96;35.76
20860;BME280;10590;48.154;11.514;2023-10-08T02:28:14;96383.94;;;17.93;35.62
20860;BME280;10590;48.154;11.514;2023-10-08T02:33:39;96379.53;;;18.01;36.02
20860;BME280;10590;48.154;11.514;2023-10-08T02:39:01;96387.63;;;18.01;35.75
20860;BME280;10590;48.154;11.514;2023-10-08T02:44:27;96386.00;;;18.12;36.15
20860;BME280;10590;48.154;11.514;2023-10-08T02:49:49;96385.38;;;18.03;36.39
20860;BME280;10590;48.154;11.514;2023-10-08T02:55:12;96384.44;;;18.11;35.63
20860;BME280;10590;48.154;11.514;2023-10-08T03:00:48;96379.28;;;18.06;36.32
20860;BME280;10590;48.154;11.514;2023-10-08T03:06:10;96344.91;;;17.91;35.83
20860;BME280;10590;48.154;11.514;2023-10-08T03:11:35;96369.78;;;18.12;35.63
20860;BME280;10590;48.154;11.514;2023-10-08T03:16:59;96367.63;;;18.18;35.40
20860;BME280;10590;48.154;11.514;2023-10-08T03:22:27;96348.88;;;18.09;35.77
20860;BME280;10590;48.154;11.514;2023-10-08T03:27:54;96358.38;;;18.19;35.56
20860;BME280;10590;48.154;11.514;2023-10-08T03:33:18;96363.69;;;18.15;35.38
20860;BME280;10590;48.154;11.514;2023-10-08T03:38:43;96357.13;;;18.28;35.31
20860;BME280;10590;48.154;11.514;2023-10-08T03:44:06;96359.56;;;18.33;35.04
20860;BME280;10590;48.154;11.514;2023-10-08T03:49:34;96344.78;;;18.15;35.18
20860;BME280;10590;48.154;11.514;2023-10-08T03:54:58;96347.09;;;18.29;35.81
20860;BME280;10590;48.154;11.514;2023-10-08T04:00:27;96349.06;;;18.16;35.76
20860;BME280;10590;48.154;11.514;2023-10-08T04:05:54;96352.91;;;18.15;35.62
20860;BME280;10590;48.154;11.514;2023-10-08T04:11:35;96360.44;;;18.22;35.72
20860;BME280;10590;48.154;11.514;2023-10-08T04:17:01;96358.50;;;18.22;36.04
20860;BME280;10590;48.154;11.514;2023-10-08T04:22:24;96348.88;;;18.09;36.07
20860;BME280;10590;48.154;11.514;2023-10-08T04:27:46;96348.28;;;18.15;35.69
20860;BME280;10590;48.154;11.514;2023-10-08T04:33:10;96354.47;;;18.16;35.87
20860;BME280;10590;48.154;11.514;2023-10-08T04:38:34;96350.28;;;18.19;35.98
20860;BME280;10590;48.154;11.514;2023-10-08T04:44:00;96351.31;;;18.14;36.34
20860;BME280;10590;48.154;11.514;2023-10-08T04:49:29;96348.19;;;18.12;36.52
20860;BME280;10590;48.154;11.514;2023-10-08T04:54:52;96339.09;;;18.04;36.05
20860;BME280;10590;48.154;11.514;2023-10-08T05:00:15;96359.19;;;18.19;35.94
20860;BME280;10590;48.154;11.514;2023-10-08T05:05:36;96359.59;;;18.05;36.65
20860;BME280;10590;48.154;11.514;2023-10-08T05:11:16;96356.97;;;18.09;36.93
20860;BME280;10590;48.154;11.514;2023-10-08T05:16:57;96362.38;;;18.09;36.28
20860;BME280;10590;48.154;11.514;2023-10-08T05:22:24;96374.75;;;18.10;36.28
20860;BME280;10590;48.154;11.514;2023-10-08T05:28:06;96388.56;;;18.21;35.87
20860;BME280;10590;48.154;11.514;2023-10-08T05:33:31;96393.38;;;18.27;36.15
20860;BME280;10590;48.154;11.514;2023-10-08T05:39:19;96419.41;;;18.20;36.90
20860;BME280;10590;48.154;11.514;2023-10-08T05:44:51;96410.59;;;17.95;38.16
20860;BME280;10590;48.154;11.514;2023-10-08T05:50:34;96438.84;;;17.97;37.26
20860;BME280;10590;48.154;11.514;2023-10-08T05:56:06;96454.19;;;17.69;37.74
20860;BME280;10590;48.154;11.514;2023-10-08T06:01:49;96474.53;;;17.54;37.42
20860;BME280;10590;48.154;11.514;2023-10-08T06:07:26;96481.16;;;17.32;38.25
20860;BME280;10590;48.154;11.514;2023-10-08T06:13:08;96477.91;;;17.27;38.95
20860;BME280;10590;48.154;11.514;2023-10-08T06:18:35;96471.38;;;17.28;39.26
20860;BME280;10590;48.154;11.514;2023-10-08T06:23:57;96484.63;;;17.33;38.73
20860;BME280;10590;48.154;11.514;2023-10-08T06:29:19;96491.84;;;17.29;40.18
20860;BME280;10590;48.154;11.514;2023-10-08T06:34:48;96481.38;;;19.12;37.22
20860;BME280;10590;48.154;11.514;2023-10-08T06:40:11;96471.69;;;18.39;38.09
20860;BME280;10590;48.154;11.514;2023-10-08T06:45:54;96468.59;;;19.44;36.87
20860;BME280;10590;48.154;11.514;2023-10-08T06:51:19;96471.47;;;20.98;33.45
20860;BME280;10590;48.154;11.514;2023-10-08T06:56:42;96475.91;;;20.10;35.59
20860;BME280;10590;48.154;11.514;2023-10-08T07:02:06;96484.88;;;22.09;32.11
20860;BME280;10590;48.154;11.514;2023-10-08T07:07:32;96480.13;;;21.76;32.40
20860;BME280;10590;48.154;11.514;2023-10-08T07:12:59;96488.06;;;21.39;33.11
20860;BME280;10590;48.154;11.514;2023-10-08T07:18:23;96481.00;;;20.31;35.96
20860;BME280;10590;48.154;11.514;2023-10-08T07:23:47;96477.63;;;19.17;37.65
20860;BME280;10590;48.154;11.514;2023-10-08T07:29:17;96467.13;;;21.66;34.14
20860;BME280;10590;48.154;11.514;2023-10-08T07:34:39;96450.97;;;20.59;35.36
20860;BME280;10590;48.154;11.514;2023-10-08T07:40:03;96473.00;;;19.84;36.79
20860;BME280;10590;48.154;11.514;2023-10-08T07:45:30;96467.97;;;19.66;37.46
20860;BME280;10590;48.154;11.514;2023-10-08T07:50:56;96464.34;;;19.12;39.66
20860;BME280;10590;48.154;11.514;2023-10-08T07:56:19;96461.00;;;19.02;38.67
20860;BME280;10590;48.154;11.514;2023-10-08T08:01:41;96476.19;;;19.07;39.84
20860;BME280;10590;48.154;11.514;2023-10-08T08:07:03;96488.78;;;19.15;40.53
20860;BME280;10590;48.154;11.514;2023-10-08T08:12:28;96482.59;;;19.30;39.51
20860;BME280;10590;48.154;11.514;2023-10-08T08:17:52;96486.84;;;19.47;40.29
20860;BME280;10590;48.154;11.514;2023-10-08T08:23:14;96471.44;;;19.83;39.62
20860;BME280;10590;48.154;11.514;2023-10-08T08:28:40;96490.59;;;19.74;39.13
20860;BME280;10590;48.154;11.514;2023-10-08T08:34:06;96484.69;;;19.53;39.79
20860;BME280;10590;48.154;11.514;2023-10-08T08:39:34;96500.13;;;19.36;40.90
20860;BME280;10590;48.154;11.514;2023-10-08T08:45:00;96509.03;;;19.37;41.55
20860;BME280;10590;48.154;11.514;2023-10-08T08:50:23;96506.34;;;19.53;41.91
20860;BME280;10590;48.154;11.514;2023-10-08T08:55:47;96493.59;;;19.53;42.42
20860;BME280;10590;48.154;11.514;2023-10-08T09:01:12;96483.09;;;19.52;42.68
20860;BME280;10590;48.154;11.514;2023-10-08T09:06:35;96460.84;;;19.42;42.37
20860;BME280;10590;48.154;11.514;2023-10-08T09:11:58;96474.72;;;19.92;41.33
20860;BME280;10590;48.154;11.514;2023-10-08T09:17:22;96481.91;;;20.00;41.98
20860;BME280;10590;48.154;11.514;2023-10-08T09:22:45;96492.75;;;20.00;40.84
20860;BME280;10590;48.154;11.514;2023-10-08T09:28:08;96505.28;;;20.08;41.47
20860;BME280;10590;48.154;11.514;2023-10-08T09:33:34;96514.00;;;19.82;41.72
20860;BME280;10590;48.154;11.514;2023-10-08T09:38:57;96524.47;;;19.84;41.96
20860;BME280;10590;48.154;11.514;2023-10-08T09:44:20;96508.09;;;20.31;40.53
20860;BME280;10590;48.154;11.514;2023-10-08T09:49:50;96518.66;;;20.75;40.03
20860;BME280;10590;48.154;11.514;2023-10-08T09:55:18;96542.88;;;21.03;40.14
20860;BME280;10590;48.154;11.514;2023-10-08T10:00:41;96553.34;;;21.23;40.61
20860;BME280;10590;48.154;11.514;2023-10-08T10:06:11;96560.00;;;21.26;39.57
20860;BME280;10590;48.154;11.514;2023-10-08T10:11:35;96568.56;;;20.70;41.23
20860;BME280;10590;48.154;11.514;2023-10-08T10:17:19;96568.00;;;20.80;41.67
20860;BME280;10590;48.154;11.514;2023-10-08T10:22:44;96566.78;;;20.58;42.51
20860;BME280;10590;48.154;11.514;2023-10-08T10:28:23;96561.53;;;20.30;42.43
20860;BME280;10590;48.154;11.514;2023-10-08T10:33:45;96574.00;;;20.00;43.15
20860;BME280;10590;48.154;11.514;2023-10-08T10:39:09;96571.31;;;20.00;43.99
20860;BME280;10590;48.154;11.514;2023-10-08T10:44:37;96573.75;;;19.89;44.17
20860;BME280;10590;48.154;11.514;2023-10-08T10:50:00;96566.16;;;19.95;44.27
20860;BME280;10590;48.154;11.514;2023-10-08T10:55:50;96557.38;;;20.17;44.04
20860;BME280;10590;48.154;11.514;2023-10-08T11:01:23;96550.94;;;20.06;44.12
20860;BME280;10590;48.154;11.514;2023-10-08T11:06:46;96548.81;;;20.15;43.67
20860;BME280;10590;48.154;11.514;2023-10-08T11:12:12;96528.41;;;20.21;44.12
20860;BME280;10590;48.154;11.514;2023-10-08T11:17:39;96527.44;;;19.94;44.12
20860;BME280;10590;48.154;11.514;2023-10-08T11:23:01;96534.41;;;20.11;44.25
20860;BME280;10590;48.154;11.514;2023-10-08T11:28:39;96549.69;;;20.39;44.02
20860;BME280;10590;48.154;11.514;2023-10-08T11:34:03;96549.25;;;20.17;45.01
20860;BME280;10590;48.154;11.514;2023-10-08T11:39:39;96540.41;;;20.20;45.03
20860;BME280;10590;48.154;11.514;2023-10-08T11:45:09;96509.44;;;20.02;45.72
20860;BME280;10590;48.154;11.514;2023-10-08T11:50:44;96525.00;;;20.24;45.08
20860;BME280;10590;48.154;11.514;2023-10-08T11:56:06;96522.78;;;20.11;44.61
20860;BME280;10590;48.154;11.514;2023-10-08T12:01:34;96500.94;;;20.03;44.99
20860;BME280;10590;48.154;11.514;2023-10-08T12:06:58;96502.78;;;19.99;44.98
20860;BME280;10590;48.154;11.514;2023-10-08T12:12:23;96514.50;;;20.23;44.98
20860;BME280;10590;48.154;11.514;2023-10-08T12:17:49;96522.69;;;20.07;46.13
20860;BME280;10590;48.154;11.514;2023-10-08T12:23:29;96527.06;;;20.12;45.06
20860;BME280;10590;48.154;11.514;2023-10-08T12:29:04;96521.91;;;19.91;45.04
20860;BME280;10590;48.154;11.514;2023-10-08T12:34:31;96523.91;;;19.94;44.92
20860;BME280;10590;48.154;11.514;2023-10-08T12:39:55;96522.03;;;19.79;44.88
20860;BME280;10590;48.154;11.514;2023-10-08T12:45:20;96530.84;;;19.91;45.06
20860;BME280;10590;48.154;11.514;2023-10-08T12:50:43;96514.75;;;19.98;45.12
20860;BME280;10590;48.154;11.514;2023-10-08T12:56:06;96514.50;;;20.03;45.22
20860;BME280;10590;48.154;11.514;2023-10-08T13:01:35;96474.72;;;19.92;45.26
20860;BME280;10590;48.154;11.514;2023-10-08T13:07:02;96483.06;;;20.18;44.68
20860;BME280;10590;48.154;11.514;2023-10-08T13:12:24;96471.22;;;20.26;44.34
20860;BME280;10590;48.154;11.514;2023-10-08T13:17:46;96489.41;;;20.64;43.61
20860;BME280;10590;48.154;11.514;2023-10-08T13:23:09;96493.69;;;20.85;42.99
20860;BME280;10590;48.154;11.514;2023-10-08T13:28:31;96484.84;;;21.11;42.77
20860;BME280;10590;48.154;11.514;2023-10-08T13:33:54;96482.03;;;21.26;42.55
20860;BME280;10590;48.154;11.514;2023-10-08T13:39:19;96489.09;;;21.31;43.03
20860;BME280;10590;48.154;11.514;2023-10-08T13:44:41;96518.22;;;21.57;41.79
20860;BME280;10590;48.154;11.514;2023-10-08T13:50:06;96518.53;;;21.75;41.75
20860;BME280;10590;48.154;11.514;2023-10-08T13:55:32;96516.69;;;21.14;43.90
20860;BME280;10590;48.154;11.514;2023-10-08T14:00:54;96519.28;;;21.26;43.52
20860;BME280;10590;48.154;11.514;2023-10-08T14:06:16;96514.16;;;21.02;44.00
20860;BME280;10590;48.154;11.514;2023-10-08T14:11:39;96512.47;;;20.93;44.52
20860;BME280;10590;48.154;11.514;2023-10-08T14:17:01;96507.03;;;20.93;44.90
20860;BME280;10590;48.154;11.514;2023-10-08T14:22:26;96502.28;;;20.87;44.83
20860;BME280;10590;48.154;11.514;2023-10-08T14:27:49;96509.31;;;20.91;45.32
20860;BME280;10590;48.154;11.514;2023-10-08T14:33:13;96497.25;;;20.70;46.22
20860;BME280;10590;48.154;11.514;2023-10-08T14:38:44;96481.19;;;20.80;45.95
20860;BME280;10590;48.154;11.514;2023-10-08T14:44:25;96485.94;;;20.64;46.42
20860;BME280;10590;48.154;11.514;2023-10-08T14:49:46;96484.13;;;20.72;46.95
20860;BME280;10590;48.154;11.514;2023-10-08T14:55:08;96493.97;;;20.80;46.21
20860;BME280;10590;48.154;11.514;2023-10-08T15:00:31;96503.78;;;20.46;46.62
20860;BME280;10590;48.154;11.514;2023-10-08T15:05:53;96476.34;;;20.31;46.95
20860;BME280;10590;48.154;11.514;2023-10-08T15:11:16;96498.78;;;20.48;47.10
20860;BME280;10590;48.154;11.514;2023-10-08T15:16:39;96491.56;;;20.55;47.05
20860;BME280;10590;48.154;11.514;2023-10-08T15:22:01;96498.13;;;20.54;46.89
20860;BME280;10590;48.154;11.514;2023-10-08T15:27:23;96507.34;;;20.50;46.84
20860;BME280;10590;48.154;11.514;2023-10-08T15:32:47;96504.88;;;20.25;48.30
20860;BME280;10590;48.154;11.514;2023-10-08T15:38:09;96494.25;;;20.17;48.14
20860;BME280;10590;48.154;11.514;2023-10-08T15:43:31;96499.75;;;20.20;50.03
20860;BME280;10590;48.154;11.514;2023-10-08T15:48:56;96512.44;;;20.16;50.16
20860;BME280;10590;48.154;11.514;2023-10-08T15:54:17;96513.28;;;20.01;51.13
20860;BME280;10590;48.154;11.514;2023-10-08T15:59:41;96515.22;;;19.85;51.50
20860;BME280;10590;48.154;11.514;2023-10-08T16:05:06;96506.06;;;19.73;51.73
20860;BME280;10590;48.154;11.514;2023-10-08T16:10:28;96500.41;;;19.31;53.55
20860;BME280;10590;48.154;11.514;2023-10-08T16:15:50;96507.91;;;19.38;53.70
20860;BME280;10590;48.154;11.514;2023-10-08T16:21:13;96512.88;;;19.36;54.74
20860;BME280;10590;48.154;11.514;2023-10-08T16:26:34;96502.41;;;19.19;55.69
20860;BME280;10590;48.154;11.514;2023-10-08T16:31:56;96495.03;;;18.20;60.20
20860;BME280;10590;48.154;11.514;2023-10-08T16:37:19;96514.91;;;17.99;61.71
20860;BME280;10590;48.154;11.514;2023-10-08T16:42:42;96506.53;;;18.29;60.52
20860;BME280;10590;48.154;11.514;2023-10-08T16:48:04;96520.72;;;18.26;59.54
20860;BME280;10590;48.154;11.514;2023-10-08T16:53:29;96524.31;;;18.18;59.78
20860;BME280;10590;48.154;11.514;2023-10-08T16:58:51;96530.91;;;17.80;62.12
20860;BME280;10590;48.154;11.514;2023-10-08T17:04:13;96534.38;;;17.56;63.07
20860;BME280;10590;48.154;11.514;2023-10-08T17:09:36;96534.81;;;17.58;63.42
20860;BME280;10590;48.154;11.514;2023-10-08T17:14:59;96534.41;;;17.68;62.72
20860;BME280;10590;48.154;11.514;2023-10-08T17:20:21;96533.47;;;17.40;63.30
20860;BME280;10590;48.154;11.514;2023-10-08T17:25:45;96543.25;;;17.57;62.97
20860;BME280;10590;48.154;11.514;2023-10-08T17:31:07;96533.47;;;17.52;62.89
20860;BME280;10590;48.154;11.514;2023-10-08T17:36:31;96529.19;;;17.51;63.34
20860;BME280;10590;48.154;11.514;2023-10-08T17:41:54;96530.94;;;17.23;64.72
20860;BME280;10590;48.154;11.514;2023-10-08T17:47:17;96507.13;;;17.25;64.74
20860;BME280;10590;48.154;11.514;2023-10-08T17:52:42;96511.38;;;17.26;64.17
20860;BME280;10590;48.154;11.514;2023-10-08T17:58:07;96507.09;;;17.12;64.33
20860;BME280;10590;48.154;11.514;2023-10-08T18:03:29;96513.97;;;17.10;64.80
20860;BME280;10590;48.154;11.514;2023-10-08T18:08:52;96522.94;;;17.14;65.44
20860;BME280;10590;48.154;11.514;2023-10-08T18:14:16;96506.72;;;16.56;66.58
20860;BME280;10590;48.154;11.514;2023-10-08T18:19:41;96524.00;;;16.76;67.16
20860;BME280;10590;48.154;11.514;2023-10-08T18:25:05;96492.38;;;16.44;67.03
20860;BME280;10590;48.154;11.514;2023-10-08T18:30:31;96514.09;;;16.47;68.18
20860;BME280;10590;48.154;11.514;2023-10-08T18:36:01;96487.16;;;16.80;66.59
20860;BME280;10590;48.154;11.514;2023-10-08T18:41:24;96488.44;;;17.07;65.20
20860;BME280;10590;48.154;11.514;2023-10-08T18:46:47;96468.44;;;17.08;65.03
20860;BME280;10590;48.154;11.514;2023-10-08T18:52:10;96467.56;;;17.16;64.06
20860;BME280;10590;48.154;11.514;2023-10-08T18:57:32;96470.03;;;17.34;63.48
20860;BME280;10590;48.154;11.514;2023-10-08T19:02:56;96457.66;;;17.08;64.72
20860;BME280;10590;48.154;11.514;2023-10-08T19:08:19;96436.44;;;16.29;70.78
20860;BME280;10590;48.154;11.514;2023-10-08T19:13:41;96484.81;;;16.91;67.36
20860;BME280;10590;48.154;11.514;2023-10-08T19:19:08;96507.31;;;16.95;68.38
20860;BME280;10590;48.154;11.514;2023-10-08T19:24:35;96501.06;;;16.49;71.54
20860;BME280;10590;48.154;11.514;2023-10-08T19:29:57;96490.88;;;16.34;71.88
20860;BME280;10590;48.154;11.514;2023-10-08T19:35:31;96497.50;;;16.58;71.42
20860;BME280;10590;48.154;11.514;2023-10-08T19:40:54;96496.41;;;16.59;70.84
20860;BME280;10590;48.154;11.514;2023-10-08T19:46:16;96499.53;;;16.61;70.71
20860;BME280;10590;48.154;11.514;2023-10-08T19:51:47;96489.50;;;16.28;71.47
20860;BME280;10590;48.154;11.514;2023-10-08T19:57:11;96492.72;;;16.42;71.02
20860;BME280;10590;48.154;11.514;2023-10-08T20:02:35;96498.25;;;15.83;73.61
20860;BME280;10590;48.154;11.514;2023-10-08T20:07:58;96498.38;;;16.29;71.75
20860;BME280;10590;48.154;11.514;2023-10-08T20:13:22;96505.81;;;15.90;73.78
20860;BME280;10590;48.154;11.514;2023-10-08T20:18:44;96500.59;;;15.55;75.54
20860;BME280;10590;48.154;11.514;2023-10-08T20:24:08;96507.78;;;15.81;74.41
20860;BME280;10590;48.154;11.514;2023-10-08T20:29:31;96507.31;;;15.79;74.43
20860;BME280;10590;48.154;11.514;2023-10-08T20:34:53;96503.78;;;15.87;74.96
20860;BME280;10590;48.154;11.514;2023-10-08T20:40:17;96497.28;;;15.50;75.90
20860;BME280;10590;48.154;11.514;2023-10-08T20:45:43;96486.63;;;15.33;76.24
20860;BME280;10590;48.154;11.514;2023-10-08T20:51:10;96500.59;;;15.55;75.47
20860;BME280;10590;48.154;11.514;2023-10-08T20:56:34;96496.13;;;15.30;76.03
20860;BME280;10590;48.154;11.514;2023-10-08T21:01:59;96486.81;;;15.27;76.42
20860;BME280;10590;48.154;11.514;2023-10-08T21:07:21;96460.59;;;15.16;76.49
20860;BME280;10590;48.154;11.514;2023-10-08T21:12:46;96471.69;;;15.14;76.08
20860;BME280;10590;48.154;11.514;2023-10-08T21:18:10;96472.97;;;15.08;76.19
20860;BME280;10590;48.154;11.514;2023-10-08T21:23:32;96424.88;;;14.69;76.78
20860;BME280;10590;48.154;11.514;2023-10-08T21:28:55;96466.75;;;14.78;77.73
20860;BME280;10590;48.154;11.514;2023-10-08T21:34:18;96451.13;;;14.63;78.53
20860;BME280;10590;48.154;11.514;2023-10-08T21:39:40;96439.81;;;14.31;79.58
20860;BME280;10590;48.154;11.514;2023-10-08T21:45:05;96442.97;;;14.33;80.11
20860;BME280;10590;48.154;11.514;2023-10-08T21:50:31;96408.06;;;14.25;78.95
20860;BME280;10590;48.154;11.514;2023-10-08T21:56:05;96423.06;;;14.26;79.63
20860;BME280;10590;48.154;11.514;2023-10-08T22:01:36;96395.47;;;13.48;82.23
20860;BME280;10590;48.154;11.514;2023-10-08T22:06:58;96427.34;;;13.66;83.26
20860;BME280;10590;48.154;11.514;2023-10-08T22:12:25;96413.31;;;13.78;82.60
20860;BME280;10590;48.154;11.514;2023-10-08T22:17:49;96404.81;;;13.93;80.89
20860;BME280;10590;48.154;11.514;2023-10-08T22:23:11;96427.38;;;14.01;80.86
20860;BME280;10590;48.154;11.514;2023-10-08T22:28:36;96410.00;;;13.98;80.68
20860;BME280;10590;48.154;11.514;2023-10-08T22:34:03;96396.44;;;13.69;81.88
20860;BME280;10590;48.154;11.514;2023-10-08T22:39:35;96416.28;;;13.59;82.19
20860;BME280;10590;48.154;11.514;2023-10-08T22:44:59;96427.75;;;13.25;85.17
20860;BME280;10590;48.154;11.514;2023-10-08T22:50:37;96421.19;;;13.49;84.11
20860;BME280;10590;48.154;11.514;2023-10-08T22:56:02;96412.84;;;13.93;82.50
20860;BME280;10590;48.154;11.514;2023-10-08T23:01:24;96409.53;;;13.96;81.41
20860;BME280;10590;48.154;11.514;2023-10-08T23:06:49;96405.88;;;13.84;81.89
20860;BME280;10590;48.154;11.514;2023-10-08T23:12:11;96382.22;;;13.68;82.40
20860;BME280;10590;48.154;11.514;2023-10-08T23:17:33;96373.38;;;13.51;82.71
20860;BME280;10590;48.154;11.514;2023-10-08T23:22:57;96389.16;;;13.69;81.94
20860;BME280;10590;48.154;11.514;2023-10-08T23:28:20;96380.00;;;13.70;81.37
20860;BME280;10590;48.154;11.514;2023-10-08T23:33:42;96382.38;;;13.55;82.10
20860;BME280;10590;48.154;11.514;2023-10-08T23:39:11;96381.75;;;13.41;82.95
20860;BME280;10590;48.154;11.514;2023-10-08T23:44:39;96373.22;;;13.38;83.31
20860;BME280;10590;48.154;11.514;2023-10-08T23:50:09;96371.50;;;13.34;83.36
20860;BME280;10590;48.154;11.514;2023-10-08T23:55:34;96347.81;;;13.19;82.99
